sensor_id;sensor_type;location;lat;lon;timestamp;temperature;humidity
20066;DHT22;10193;48.884;9.182;2023-11-19T00:01:32;10.70;91.80
20066;DHT22;10193;48.884;9.182;2023-11-19T00:03:59;10.70;91.80
20066;DHT22;10193;48.884;9.182;2023-11-19T00:06:25;10.70;91.80
20066;DHT22;10193;48.884;9.182;2023-11-19T00:08:54;10.80;91.90
20066;DHT22;10193;48.884;9.182;2023-11-19T00:11:21;10.80;91.90
20066;DHT22;10193;48.884;9.182;2023-11-19T00:13:47;10.80;91.90
20066;DHT22;10193;48.884;9.182;2023-11-19T00:16:14;10.80;91.80
20066;DHT22;10193;48.884;9.182;2023-11-19T00:18:41;10.80;91.80
20066;DHT22;10193;48.884;9.182;2023-11-19T00:21:08;10.80;91.80
20066;DHT22;10193;48.884;9.182;2023-11-19T00:23:35;10.90;91.90
20066;DHT22;10193;48.884;9.182;2023-11-19T00:26:04;10.90;92.00
20066;DHT22;10193;48.884;9.182;2023-11-19T00:28:31;10.90;92.10
20066;DHT22;10193;48.884;9.182;2023-11-19T00:30:59;10.90;92.20
20066;DHT22;10193;48.884;9.182;2023-11-19T00:33:25;10.90;92.30
20066;DHT22;10193;48.884;9.182;2023-11-19T00:35:52;11.00;92.50
20066;DHT22;10193;48.884;9.182;2023-11-19T00:38:19;11.00;92.70
20066;DHT22;10193;48.884;9.182;2023-11-19T00:40:45;11.00;92.80
20066;DHT22;10193;48.884;9.182;2023-11-19T00:43:13;11.10;93.00
20066;DHT22;10193;48.884;9.182;2023-11-19T00:45:40;11.10;93.00
20066;DHT22;10193;48.884;9.182;2023-11-19T00:48:07;11.20;93.10
20066;DHT22;10193;48.884;9.182;2023-11-19T00:50:33;11.20;93.20
20066;DHT22;10193;48.884;9.182;2023-11-19T00:53:00;11.30;93.20
20066;DHT22;10193;48.884;9.182;2023-11-19T00:55:28;11.30;93.20
20066;DHT22;10193;48.884;9.182;2023-11-19T00:57:55;11.40;93.20
20066;DHT22;10193;48.884;9.182;2023-11-19T01:00:24;11.40;93.10
20066;DHT22;10193;48.884;9.182;2023-11-19T01:02:52;11.50;93.10
20066;DHT22;10193;48.884;9.182;2023-11-19T01:05:20;11.50;93.10
20066;DHT22;10193;48.884;9.182;2023-11-19T01:07:49;11.50;93.10
20066;DHT22;10193;48.884;9.182;2023-11-19T01:10:19;11.60;93.10
20066;DHT22;10193;48.884;9.182;2023-11-19T01:12:45;11.60;93.10
20066;DHT22;10193;48.884;9.182;2023-11-19T01:15:12;11.70;93.10
20066;DHT22;10193;48.884;9.182;2023-11-19T01:17:40;11.70;93.00
20066;DHT22;10193;48.884;9.182;2023-11-19T01:20:09;11.70;93.00
20066;DHT22;10193;48.884;9.182;2023-11-19T01:22:38;11.80;93.00
20066;DHT22;10193;48.884;9.182;2023-11-19T01:25:06;11.70;93.00
20066;DHT22;10193;48.884;9.182;2023-11-19T01:27:32;11.80;93.00
20066;DHT22;10193;48.884;9.182;2023-11-19T01:30:00;11.80;93.00
20066;DHT22;10193;48.884;9.182;2023-11-19T01:32:29;11.90;93.00
20066;DHT22;10193;48.884;9.182;2023-11-19T01:34:57;11.90;93.10
20066;DHT22;10193;48.884;9.182;2023-11-19T01:37:24;11.90;93.00
20066;DHT22;10193;48.884;9.182;2023-11-19T01:39:51;11.90;93.10
20066;DHT22;10193;48.884;9.182;2023-11-19T01:42:17;11.90;93.00
20066;DHT22;10193;48.884;9.182;2023-11-19T01:44:56;12.00;93.10
20066;DHT22;10193;48.884;9.182;2023-11-19T01:47:24;12.00;93.00
20066;DHT22;10193;48.884;9.182;2023-11-19T01:49:51;12.00;93.10
20066;DHT22;10193;48.884;9.182;2023-11-19T01:52:20;12.00;93.00
20066;DHT22;10193;48.884;9.182;2023-11-19T01:54:47;12.10;93.00
20066;DHT22;10193;48.884;9.182;2023-11-19T01:57:14;12.10;93.00
20066;DHT22;10193;48.884;9.182;2023-11-19T01:59:41;12.10;93.00
20066;DHT22;10193;48.884;9.182;2023-11-19T02:02:08;12.10;93.00
20066;DHT22;10193;48.884;9.182;2023-11-19T02:04:35;12.10;93.00
20066;DHT22;10193;48.884;9.182;2023-11-19T02:07:01;12.20;93.00
20066;DHT22;10193;48.884;9.182;2023-11-19T02:09:31;12.10;92.90
20066;DHT22;10193;48.884;9.182;2023-11-19T02:11:58;12.20;92.90
20066;DHT22;10193;48.884;9.182;2023-11-19T02:14:25;12.20;92.90
20066;DHT22;10193;48.884;9.182;2023-11-19T02:16:52;12.20;92.80
20066;DHT22;10193;48.884;9.182;2023-11-19T02:19:19;12.20;92.80
20066;DHT22;10193;48.884;9.182;2023-11-19T02:21:46;12.20;92.80
20066;DHT22;10193;48.884;9.182;2023-11-19T02:24:14;12.20;93.20
20066;DHT22;10193;48.884;9.182;2023-11-19T02:26:57;12.20;92.80
20066;DHT22;10193;48.884;9.182;2023-11-19T02:29:29;12.30;92.80
20066;DHT22;10193;48.884;9.182;2023-11-19T02:31:56;12.30;92.80
20066;DHT22;10193;48.884;9.182;2023-11-19T02:34:22;12.30;92.90
20066;DHT22;10193;48.884;9.182;2023-11-19T02:36:49;12.30;92.90
20066;DHT22;10193;48.884;9.182;2023-11-19T02:39:16;12.30;93.20
20066;DHT22;10193;48.884;9.182;2023-11-19T02:41:46;12.30;92.80
20066;DHT22;10193;48.884;9.182;2023-11-19T02:44:16;12.30;92.80
20066;DHT22;10193;48.884;9.182;2023-11-19T02:46:44;12.40;92.90
20066;DHT22;10193;48.884;9.182;2023-11-19T02:49:13;12.40;92.80
20066;DHT22;10193;48.884;9.182;2023-11-19T02:51:40;12.40;92.80
20066;DHT22;10193;48.884;9.182;2023-11-19T02:54:07;12.40;92.80
20066;DHT22;10193;48.884;9.182;2023-11-19T02:56:33;12.40;92.70
20066;DHT22;10193;48.884;9.182;2023-11-19T02:59:02;12.40;92.70
20066;DHT22;10193;48.884;9.182;2023-11-19T03:01:34;12.40;92.70
20066;DHT22;10193;48.884;9.182;2023-11-19T03:04:03;12.40;92.70
20066;DHT22;10193;48.884;9.182;2023-11-19T03:06:29;12.40;92.70
20066;DHT22;10193;48.884;9.182;2023-11-19T03:08:57;12.40;92.70
20066;DHT22;10193;48.884;9.182;2023-11-19T03:11:23;12.40;92.80
20066;DHT22;10193;48.884;9.182;2023-11-19T03:13:51;12.40;92.80
20066;DHT22;10193;48.884;9.182;2023-11-19T03:16:17;12.40;92.90
20066;DHT22;10193;48.884;9.182;2023-11-19T03:18:44;12.40;92.90
20066;DHT22;10193;48.884;9.182;2023-11-19T03:21:12;12.50;92.90
20066;DHT22;10193;48.884;9.182;2023-11-19T03:23:39;12.50;92.80
20066;DHT22;10193;48.884;9.182;2023-11-19T03:26:06;12.50;93.20
20066;DHT22;10193;48.884;9.182;2023-11-19T03:28:33;12.50;92.80
20066;DHT22;10193;48.884;9.182;2023-11-19T03:31:00;12.50;92.80
20066;DHT22;10193;48.884;9.182;2023-11-19T03:33:26;12.50;92.80
20066;DHT22;10193;48.884;9.182;2023-11-19T03:35:54;12.50;92.80
20066;DHT22;10193;48.884;9.182;2023-11-19T03:38:23;12.50;92.80
20066;DHT22;10193;48.884;9.182;2023-11-19T03:40:49;12.50;92.70
20066;DHT22;10193;48.884;9.182;2023-11-19T03:43:16;12.50;92.50
20066;DHT22;10193;48.884;9.182;2023-11-19T03:45:44;12.50;92.50
20066;DHT22;10193;48.884;9.182;2023-11-19T03:48:11;12.50;92.40
20066;DHT22;10193;48.884;9.182;2023-11-19T03:50:38;12.50;92.20
20066;DHT22;10193;48.884;9.182;2023-11-19T03:53:05;12.40;92.10
20066;DHT22;10193;48.884;9.182;2023-11-19T03:55:33;12.40;92.10
20066;DHT22;10193;48.884;9.182;2023-11-19T03:58:00;12.40;92.20
20066;DHT22;10193;48.884;9.182;2023-11-19T04:00:26;12.40;92.20
20066;DHT22;10193;48.884;9.182;2023-11-19T04:02:53;12.30;92.20
20066;DHT22;10193;48.884;9.182;2023-11-19T04:05:20;12.30;92.20
20066;DHT22;10193;48.884;9.182;2023-11-19T04:07:46;12.30;92.30
20066;DHT22;10193;48.884;9.182;2023-11-19T04:10:13;12.30;92.30
20066;DHT22;10193;48.884;9.182;2023-11-19T04:12:43;12.30;92.40
20066;DHT22;10193;48.884;9.182;2023-11-19T04:15:11;12.20;92.40
20066;DHT22;10193;48.884;9.182;2023-11-19T04:17:37;12.30;92.60
20066;DHT22;10193;48.884;9.182;2023-11-19T04:20:05;12.30;92.70
20066;DHT22;10193;48.884;9.182;2023-11-19T04:22:36;12.20;92.70
20066;DHT22;10193;48.884;9.182;2023-11-19T04:25:03;12.30;92.80
20066;DHT22;10193;48.884;9.182;2023-11-19T04:27:30;12.30;92.90
20066;DHT22;10193;48.884;9.182;2023-11-19T04:29:58;12.30;92.90
20066;DHT22;10193;48.884;9.182;2023-11-19T04:32:27;12.30;92.90
20066;DHT22;10193;48.884;9.182;2023-11-19T04:34:54;12.30;92.90
20066;DHT22;10193;48.884;9.182;2023-11-19T04:37:21;12.40;93.00
20066;DHT22;10193;48.884;9.182;2023-11-19T04:39:48;12.40;93.00
20066;DHT22;10193;48.884;9.182;2023-11-19T04:42:14;12.40;93.00
20066;DHT22;10193;48.884;9.182;2023-11-19T04:44:43;12.40;93.00
20066;DHT22;10193;48.884;9.182;2023-11-19T04:47:11;12.40;93.00
20066;DHT22;10193;48.884;9.182;2023-11-19T04:49:40;12.40;93.00
20066;DHT22;10193;48.884;9.182;2023-11-19T04:52:08;12.40;92.90
20066;DHT22;10193;48.884;9.182;2023-11-19T04:54:35;12.40;92.90
20066;DHT22;10193;48.884;9.182;2023-11-19T04:57:01;12.40;92.80
20066;DHT22;10193;48.884;9.182;2023-11-19T04:59:28;12.40;92.80
20066;DHT22;10193;48.884;9.182;2023-11-19T05:01:55;12.40;92.90
20066;DHT22;10193;48.884;9.182;2023-11-19T05:04:22;12.40;92.90
20066;DHT22;10193;48.884;9.182;2023-11-19T05:06:49;12.40;93.00
20066;DHT22;10193;48.884;9.182;2023-11-19T05:09:16;12.50;93.20
20066;DHT22;10193;48.884;9.182;2023-11-19T05:11:43;12.50;93.20
20066;DHT22;10193;48.884;9.182;2023-11-19T05:14:10;12.50;93.40
20066;DHT22;10193;48.884;9.182;2023-11-19T05:16:39;12.50;93.50
20066;DHT22;10193;48.884;9.182;2023-11-19T05:19:06;12.50;93.50
20066;DHT22;10193;48.884;9.182;2023-11-19T05:21:34;12.60;93.70
20066;DHT22;10193;48.884;9.182;2023-11-19T05:24:01;12.60;93.70
20066;DHT22;10193;48.884;9.182;2023-11-19T05:26:30;12.70;93.90
20066;DHT22;10193;48.884;9.182;2023-11-19T05:28:56;12.70;93.90
20066;DHT22;10193;48.884;9.182;2023-11-19T05:31:23;12.70;94.00
20066;DHT22;10193;48.884;9.182;2023-11-19T05:33:50;12.80;94.10
20066;DHT22;10193;48.884;9.182;2023-11-19T05:36:17;12.80;94.10
20066;DHT22;10193;48.884;9.182;2023-11-19T05:38:45;12.90;94.20
20066;DHT22;10193;48.884;9.182;2023-11-19T05:41:11;12.90;94.10
20066;DHT22;10193;48.884;9.182;2023-11-19T05:43:38;13.00;94.20
20066;DHT22;10193;48.884;9.182;2023-11-19T05:46:06;13.00;94.50
20066;DHT22;10193;48.884;9.182;2023-11-19T05:48:33;13.00;94.00
20066;DHT22;10193;48.884;9.182;2023-11-19T05:50:59;13.00;93.90
20066;DHT22;10193;48.884;9.182;2023-11-19T05:53:26;13.20;93.90
20066;DHT22;10193;48.884;9.182;2023-11-19T05:55:54;13.10;93.80
20066;DHT22;10193;48.884;9.182;2023-11-19T05:58:23;13.20;93.70
20066;DHT22;10193;48.884;9.182;2023-11-19T06:00:50;13.20;93.70
20066;DHT22;10193;48.884;9.182;2023-11-19T06:03:17;13.20;93.70
20066;DHT22;10193;48.884;9.182;2023-11-19T06:05:44;13.20;93.80
20066;DHT22;10193;48.884;9.182;2023-11-19T06:08:11;13.20;93.90
20066;DHT22;10193;48.884;9.182;2023-11-19T06:10:40;13.30;94.00
20066;DHT22;10193;48.884;9.182;2023-11-19T06:13:08;13.30;94.00
20066;DHT22;10193;48.884;9.182;2023-11-19T06:15:35;13.30;94.00
20066;DHT22;10193;48.884;9.182;2023-11-19T06:18:02;13.30;94.00
20066;DHT22;10193;48.884;9.182;2023-11-19T06:20:29;13.40;94.00
20066;DHT22;10193;48.884;9.182;2023-11-19T06:22:57;13.40;94.00
20066;DHT22;10193;48.884;9.182;2023-11-19T06:25:24;13.50;94.10
20066;DHT22;10193;48.884;9.182;2023-11-19T06:27:50;13.40;94.00
20066;DHT22;10193;48.884;9.182;2023-11-19T06:30:19;13.40;94.00
20066;DHT22;10193;48.884;9.182;2023-11-19T06:32:46;13.40;93.90
20066;DHT22;10193;48.884;9.182;2023-11-19T06:35:13;13.50;93.90
20066;DHT22;10193;48.884;9.182;2023-11-19T06:37:40;13.50;93.80
20066;DHT22;10193;48.884;9.182;2023-11-19T06:40:08;13.50;93.80
20066;DHT22;10193;48.884;9.182;2023-11-19T06:42:35;13.50;93.80
20066;DHT22;10193;48.884;9.182;2023-11-19T06:45:02;13.60;93.90
20066;DHT22;10193;48.884;9.182;2023-11-19T06:47:31;13.50;93.90
20066;DHT22;10193;48.884;9.182;2023-11-19T06:49:58;13.60;93.80
20066;DHT22;10193;48.884;9.182;2023-11-19T06:52:24;13.60;93.90
20066;DHT22;10193;48.884;9.182;2023-11-19T06:54:51;13.60;94.00
20066;DHT22;10193;48.884;9.182;2023-11-19T06:57:32;13.60;94.10
20066;DHT22;10193;48.884;9.182;2023-11-19T07:00:25;13.70;94.20
20066;DHT22;10193;48.884;9.182;2023-11-19T07:03:06;13.70;94.10
20066;DHT22;10193;48.884;9.182;2023-11-19T07:05:36;13.70;94.20
20066;DHT22;10193;48.884;9.182;2023-11-19T07:08:04;13.80;94.40
20066;DHT22;10193;48.884;9.182;2023-11-19T07:10:32;13.80;94.20
20066;DHT22;10193;48.884;9.182;2023-11-19T07:12:59;13.80;94.20
20066;DHT22;10193;48.884;9.182;2023-11-19T07:15:26;13.80;94.60
20066;DHT22;10193;48.884;9.182;2023-11-19T07:17:52;13.90;94.30
20066;DHT22;10193;48.884;9.182;2023-11-19T07:20:21;13.90;94.40
20066;DHT22;10193;48.884;9.182;2023-11-19T07:22:48;13.90;94.30
20066;DHT22;10193;48.884;9.182;2023-11-19T07:25:14;13.90;94.30
20066;DHT22;10193;48.884;9.182;2023-11-19T07:27:41;14.00;94.30
20066;DHT22;10193;48.884;9.182;2023-11-19T07:30:08;14.00;94.30
20066;DHT22;10193;48.884;9.182;2023-11-19T07:32:35;14.00;94.30
20066;DHT22;10193;48.884;9.182;2023-11-19T07:35:05;14.00;94.20
20066;DHT22;10193;48.884;9.182;2023-11-19T07:37:34;14.00;94.10
20066;DHT22;10193;48.884;9.182;2023-11-19T07:40:00;14.10;94.10
20066;DHT22;10193;48.884;9.182;2023-11-19T07:42:27;14.10;94.00
20066;DHT22;10193;48.884;9.182;2023-11-19T07:44:54;14.10;94.00
20066;DHT22;10193;48.884;9.182;2023-11-19T07:47:22;14.10;94.00
20066;DHT22;10193;48.884;9.182;2023-11-19T07:49:50;14.10;94.00
20066;DHT22;10193;48.884;9.182;2023-11-19T07:52:17;14.10;94.30
20066;DHT22;10193;48.884;9.182;2023-11-19T07:54:45;14.10;94.00
20066;DHT22;10193;48.884;9.182;2023-11-19T07:57:10;14.10;94.00
20066;DHT22;10193;48.884;9.182;2023-11-19T07:59:37;14.20;94.10
20066;DHT22;10193;48.884;9.182;2023-11-19T08:02:05;14.20;94.10
20066;DHT22;10193;48.884;9.182;2023-11-19T08:04:32;14.20;94.00
20066;DHT22;10193;48.884;9.182;2023-11-19T08:06:59;14.20;94.00
20066;DHT22;10193;48.884;9.182;2023-11-19T08:09:25;14.20;94.00
20066;DHT22;10193;48.884;9.182;2023-11-19T08:11:53;14.20;94.00
20066;DHT22;10193;48.884;9.182;2023-11-19T08:14:21;14.20;94.00
20066;DHT22;10193;48.884;9.182;2023-11-19T08:16:48;14.30;94.10
20066;DHT22;10193;48.884;9.182;2023-11-19T08:19:15;14.20;94.10
20066;DHT22;10193;48.884;9.182;2023-11-19T08:21:42;14.30;94.30
20066;DHT22;10193;48.884;9.182;2023-11-19T08:24:08;14.30;94.40
20066;DHT22;10193;48.884;9.182;2023-11-19T08:26:35;14.30;94.60
20066;DHT22;10193;48.884;9.182;2023-11-19T08:29:03;14.40;95.00
20066;DHT22;10193;48.884;9.182;2023-11-19T08:31:30;14.40;95.30
20066;DHT22;10193;48.884;9.182;2023-11-19T08:33:56;14.50;95.50
20066;DHT22;10193;48.884;9.182;2023-11-19T08:36:23;14.50;95.50
20066;DHT22;10193;48.884;9.182;2023-11-19T08:38:49;14.60;95.40
20066;DHT22;10193;48.884;9.182;2023-11-19T08:41:17;14.70;95.30
20066;DHT22;10193;48.884;9.182;2023-11-19T08:43:44;14.70;95.10
20066;DHT22;10193;48.884;9.182;2023-11-19T08:46:12;14.70;94.90
20066;DHT22;10193;48.884;9.182;2023-11-19T08:48:40;14.80;94.70
20066;DHT22;10193;48.884;9.182;2023-11-19T08:51:07;14.80;94.70
20066;DHT22;10193;48.884;9.182;2023-11-19T08:53:33;14.80;94.90
20066;DHT22;10193;48.884;9.182;2023-11-19T08:56:00;14.90;95.00
20066;DHT22;10193;48.884;9.182;2023-11-19T08:58:28;14.90;94.90
20066;DHT22;10193;48.884;9.182;2023-11-19T09:00:54;14.90;95.00
20066;DHT22;10193;48.884;9.182;2023-11-19T09:03:22;15.00;95.10
20066;DHT22;10193;48.884;9.182;2023-11-19T09:05:51;15.00;95.00
20066;DHT22;10193;48.884;9.182;2023-11-19T09:08:17;15.00;95.00
20066;DHT22;10193;48.884;9.182;2023-11-19T09:10:44;15.10;95.20
20066;DHT22;10193;48.884;9.182;2023-11-19T09:13:11;15.10;95.40
20066;DHT22;10193;48.884;9.182;2023-11-19T09:15:38;15.20;95.60
20066;DHT22;10193;48.884;9.182;2023-11-19T09:18:05;15.20;95.60
20066;DHT22;10193;48.884;9.182;2023-11-19T09:20:33;15.20;95.60
20066;DHT22;10193;48.884;9.182;2023-11-19T09:23:04;15.30;95.70
20066;DHT22;10193;48.884;9.182;2023-11-19T09:25:31;15.40;95.80
20066;DHT22;10193;48.884;9.182;2023-11-19T09:27:58;15.50;95.70
20066;DHT22;10193;48.884;9.182;2023-11-19T09:30:25;15.50;95.60
20066;DHT22;10193;48.884;9.182;2023-11-19T09:32:51;15.50;95.30
20066;DHT22;10193;48.884;9.182;2023-11-19T09:35:18;15.60;95.10
20066;DHT22;10193;48.884;9.182;2023-11-19T09:37:46;15.60;94.90
20066;DHT22;10193;48.884;9.182;2023-11-19T09:40:14;15.60;94.70
20066;DHT22;10193;48.884;9.182;2023-11-19T09:42:43;15.60;94.70
20066;DHT22;10193;48.884;9.182;2023-11-19T09:45:13;15.70;94.80
20066;DHT22;10193;48.884;9.182;2023-11-19T09:47:40;15.70;95.10
20066;DHT22;10193;48.884;9.182;2023-11-19T09:50:08;15.70;95.80
20066;DHT22;10193;48.884;9.182;2023-11-19T09:52:35;15.80;96.10
20066;DHT22;10193;48.884;9.182;2023-11-19T09:55:04;15.90;96.20
20066;DHT22;10193;48.884;9.182;2023-11-19T09:57:32;15.90;96.10
20066;DHT22;10193;48.884;9.182;2023-11-19T10:00:00;16.00;96.30
20066;DHT22;10193;48.884;9.182;2023-11-19T10:02:31;16.10;96.20
20066;DHT22;10193;48.884;9.182;2023-11-19T10:05:04;16.20;95.80
20066;DHT22;10193;48.884;9.182;2023-11-19T10:07:31;16.20;95.50
20066;DHT22;10193;48.884;9.182;2023-11-19T10:09:58;16.30;95.90
20066;DHT22;10193;48.884;9.182;2023-11-19T10:12:27;16.40;95.90
20066;DHT22;10193;48.884;9.182;2023-11-19T10:14:57;16.40;95.70
20066;DHT22;10193;48.884;9.182;2023-11-19T10:17:27;16.50;95.80
20066;DHT22;10193;48.884;9.182;2023-11-19T10:19:55;16.60;95.60
20066;DHT22;10193;48.884;9.182;2023-11-19T10:22:22;16.60;96.10
20066;DHT22;10193;48.884;9.182;2023-11-19T10:24:49;16.70;96.30
20066;DHT22;10193;48.884;9.182;2023-11-19T10:27:17;16.70;96.30
20066;DHT22;10193;48.884;9.182;2023-11-19T10:29:46;16.80;96.50
20066;DHT22;10193;48.884;9.182;2023-11-19T10:32:13;16.80;96.60
20066;DHT22;10193;48.884;9.182;2023-11-19T10:34:40;16.90;96.60
20066;DHT22;10193;48.884;9.182;2023-11-19T10:37:07;17.00;96.40
20066;DHT22;10193;48.884;9.182;2023-11-19T10:39:51;17.10;96.00
20066;DHT22;10193;48.884;9.182;2023-11-19T10:42:19;17.10;95.10
20066;DHT22;10193;48.884;9.182;2023-11-19T10:44:47;17.20;95.70
20066;DHT22;10193;48.884;9.182;2023-11-19T10:47:14;17.30;95.60
20066;DHT22;10193;48.884;9.182;2023-11-19T10:49:43;17.30;95.40
20066;DHT22;10193;48.884;9.182;2023-11-19T10:52:12;17.30;94.90
20066;DHT22;10193;48.884;9.182;2023-11-19T10:54:44;17.40;94.70
20066;DHT22;10193;48.884;9.182;2023-11-19T10:57:12;17.40;94.80
20066;DHT22;10193;48.884;9.182;2023-11-19T10:59:43;17.40;94.90
20066;DHT22;10193;48.884;9.182;2023-11-19T11:02:17;17.40;94.90
20066;DHT22;10193;48.884;9.182;2023-11-19T11:04:47;17.40;94.00
20066;DHT22;10193;48.884;9.182;2023-11-19T11:07:17;17.50;94.30
20066;DHT22;10193;48.884;9.182;2023-11-19T11:09:45;17.50;94.40
20066;DHT22;10193;48.884;9.182;2023-11-19T11:12:15;17.50;94.30
20066;DHT22;10193;48.884;9.182;2023-11-19T11:14:44;17.50;94.20
20066;DHT22;10193;48.884;9.182;2023-11-19T11:17:17;17.50;93.90
20066;DHT22;10193;48.884;9.182;2023-11-19T11:19:44;17.50;93.50
20066;DHT22;10193;48.884;9.182;2023-11-19T11:22:11;17.50;93.90
20066;DHT22;10193;48.884;9.182;2023-11-19T11:24:52;17.50;93.90
20066;DHT22;10193;48.884;9.182;2023-11-19T11:27:43;17.50;93.40
20066;DHT22;10193;48.884;9.182;2023-11-19T11:30:24;17.50;93.30
20066;DHT22;10193;48.884;9.182;2023-11-19T11:33:00;17.50;94.20
20066;DHT22;10193;48.884;9.182;2023-11-19T11:35:38;17.50;94.30
20066;DHT22;10193;48.884;9.182;2023-11-19T11:38:08;17.50;94.80
20066;DHT22;10193;48.884;9.182;2023-11-19T11:40:35;17.60;95.50
20066;DHT22;10193;48.884;9.182;2023-11-19T11:43:02;17.60;95.50
20066;DHT22;10193;48.884;9.182;2023-11-19T11:45:37;17.70;95.50
20066;DHT22;10193;48.884;9.182;2023-11-19T11:48:12;17.70;94.90
20066;DHT22;10193;48.884;9.182;2023-11-19T11:50:49;17.80;94.40
20066;DHT22;10193;48.884;9.182;2023-11-19T11:53:20;17.90;94.00
20066;DHT22;10193;48.884;9.182;2023-11-19T11:55:58;17.90;94.30
20066;DHT22;10193;48.884;9.182;2023-11-19T11:58:27;17.90;93.90
20066;DHT22;10193;48.884;9.182;2023-11-19T12:00:57;18.00;94.20
20066;DHT22;10193;48.884;9.182;2023-11-19T12:03:27;18.00;93.90
20066;DHT22;10193;48.884;9.182;2023-11-19T12:05:54;18.00;93.70
20066;DHT22;10193;48.884;9.182;2023-11-19T12:08:26;18.00;93.80
20066;DHT22;10193;48.884;9.182;2023-11-19T12:10:54;18.00;93.30
20066;DHT22;10193;48.884;9.182;2023-11-19T12:13:23;17.90;93.70
20066;DHT22;10193;48.884;9.182;2023-11-19T12:16:08;18.00;94.00
20066;DHT22;10193;48.884;9.182;2023-11-19T12:18:39;18.00;93.20
20066;DHT22;10193;48.884;9.182;2023-11-19T12:21:06;18.00;93.70
20066;DHT22;10193;48.884;9.182;2023-11-19T12:23:35;18.00;94.00
20066;DHT22;10193;48.884;9.182;2023-11-19T12:26:02;18.00;93.60
20066;DHT22;10193;48.884;9.182;2023-11-19T12:28:29;18.00;93.30
20066;DHT22;10193;48.884;9.182;2023-11-19T12:31:07;18.00;93.50
20066;DHT22;10193;48.884;9.182;2023-11-19T12:33:37;18.00;92.90
20066;DHT22;10193;48.884;9.182;2023-11-19T12:36:05;18.00;93.50
20066;DHT22;10193;48.884;9.182;2023-11-19T12:38:33;18.00;93.50
20066;DHT22;10193;48.884;9.182;2023-11-19T12:41:03;18.00;93.40
20066;DHT22;10193;48.884;9.182;2023-11-19T12:43:30;18.00;93.10
20066;DHT22;10193;48.884;9.182;2023-11-19T12:45:57;18.00;93.10
20066;DHT22;10193;48.884;9.182;2023-11-19T12:48:24;18.00;93.00
20066;DHT22;10193;48.884;9.182;2023-11-19T12:50:52;18.10;92.90
20066;DHT22;10193;48.884;9.182;2023-11-19T12:53:19;18.00;92.60
20066;DHT22;10193;48.884;9.182;2023-11-19T12:55:46;18.00;92.60
20066;DHT22;10193;48.884;9.182;2023-11-19T12:58:28;18.00;92.60
20066;DHT22;10193;48.884;9.182;2023-11-19T13:00:59;18.00;92.40
20066;DHT22;10193;48.884;9.182;2023-11-19T13:03:30;18.00;92.40
20066;DHT22;10193;48.884;9.182;2023-11-19T13:06:03;17.90;92.70
20066;DHT22;10193;48.884;9.182;2023-11-19T13:08:36;17.90;92.00
20066;DHT22;10193;48.884;9.182;2023-11-19T13:11:04;17.90;91.90
20066;DHT22;10193;48.884;9.182;2023-11-19T13:13:32;17.90;92.40
20066;DHT22;10193;48.884;9.182;2023-11-19T13:16:03;17.90;92.50
20066;DHT22;10193;48.884;9.182;2023-11-19T13:18:31;17.90;92.00
20066;DHT22;10193;48.884;9.182;2023-11-19T13:20:57;17.80;92.10
20066;DHT22;10193;48.884;9.182;2023-11-19T13:23:25;17.80;92.00
20066;DHT22;10193;48.884;9.182;2023-11-19T13:25:52;17.80;92.20
20066;DHT22;10193;48.884;9.182;2023-11-19T13:28:19;17.80;92.20
20066;DHT22;10193;48.884;9.182;2023-11-19T13:30:45;17.80;92.10
20066;DHT22;10193;48.884;9.182;2023-11-19T13:33:12;17.70;91.90
20066;DHT22;10193;48.884;9.182;2023-11-19T13:35:39;17.70;91.90
20066;DHT22;10193;48.884;9.182;2023-11-19T13:38:06;17.70;91.80
20066;DHT22;10193;48.884;9.182;2023-11-19T13:40:35;17.60;91.70
20066;DHT22;10193;48.884;9.182;2023-11-19T13:43:02;17.60;91.60
20066;DHT22;10193;48.884;9.182;2023-11-19T13:45:28;17.60;91.90
20066;DHT22;10193;48.884;9.182;2023-11-19T13:47:55;17.60;91.40
20066;DHT22;10193;48.884;9.182;2023-11-19T13:50:22;17.50;91.30
20066;DHT22;10193;48.884;9.182;2023-11-19T13:52:49;17.50;91.30
20066;DHT22;10193;48.884;9.182;2023-11-19T13:55:15;17.40;91.20
20066;DHT22;10193;48.884;9.182;2023-11-19T13:57:44;17.40;91.30
20066;DHT22;10193;48.884;9.182;2023-11-19T14:00:12;17.30;91.30
20066;DHT22;10193;48.884;9.182;2023-11-19T14:02:41;17.30;91.50
20066;DHT22;10193;48.884;9.182;2023-11-19T14:05:08;17.30;91.50
20066;DHT22;10193;48.884;9.182;2023-11-19T14:07:36;17.30;91.50
20066;DHT22;10193;48.884;9.182;2023-11-19T14:10:03;17.20;91.50
20066;DHT22;10193;48.884;9.182;2023-11-19T14:12:30;17.20;91.40
20066;DHT22;10193;48.884;9.182;2023-11-19T14:14:58;17.20;91.30
20066;DHT22;10193;48.884;9.182;2023-11-19T14:17:25;17.10;91.30
20066;DHT22;10193;48.884;9.182;2023-11-19T14:19:52;17.20;91.20
20066;DHT22;10193;48.884;9.182;2023-11-19T14:22:19;17.10;91.20
20066;DHT22;10193;48.884;9.182;2023-11-19T14:24:46;17.10;91.10
20066;DHT22;10193;48.884;9.182;2023-11-19T14:27:12;17.10;91.00
20066;DHT22;10193;48.884;9.182;2023-11-19T14:29:39;17.00;90.80
20066;DHT22;10193;48.884;9.182;2023-11-19T14:32:07;17.00;91.20
20066;DHT22;10193;48.884;9.182;2023-11-19T14:34:34;16.90;90.80
20066;DHT22;10193;48.884;9.182;2023-11-19T14:37:01;16.90;90.80
20066;DHT22;10193;48.884;9.182;2023-11-19T14:39:27;16.90;90.90
20066;DHT22;10193;48.884;9.182;2023-11-19T14:41:56;16.90;90.70
20066;DHT22;10193;48.884;9.182;2023-11-19T14:44:26;16.80;90.60
20066;DHT22;10193;48.884;9.182;2023-11-19T14:46:54;16.80;90.60
20066;DHT22;10193;48.884;9.182;2023-11-19T14:49:22;16.80;90.50
20066;DHT22;10193;48.884;9.182;2023-11-19T14:51:49;16.80;90.50
20066;DHT22;10193;48.884;9.182;2023-11-19T14:54:16;16.70;90.50
20066;DHT22;10193;48.884;9.182;2023-11-19T14:56:43;16.70;90.50
20066;DHT22;10193;48.884;9.182;2023-11-19T14:59:09;16.60;90.40
20066;DHT22;10193;48.884;9.182;2023-11-19T15:01:36;16.60;90.30
20066;DHT22;10193;48.884;9.182;2023-11-19T15:04:03;16.60;90.30
20066;DHT22;10193;48.884;9.182;2023-11-19T15:06:31;16.60;90.20
20066;DHT22;10193;48.884;9.182;2023-11-19T15:08:59;16.50;90.20
20066;DHT22;10193;48.884;9.182;2023-11-19T15:11:25;16.40;90.10
20066;DHT22;10193;48.884;9.182;2023-11-19T15:13:52;16.40;90.10
20066;DHT22;10193;48.884;9.182;2023-11-19T15:16:19;16.40;90.00
20066;DHT22;10193;48.884;9.182;2023-11-19T15:18:51;16.30;90.00
20066;DHT22;10193;48.884;9.182;2023-11-19T15:21:18;16.30;90.00
20066;DHT22;10193;48.884;9.182;2023-11-19T15:23:46;16.20;90.00
20066;DHT22;10193;48.884;9.182;2023-11-19T15:26:12;16.20;89.90
20066;DHT22;10193;48.884;9.182;2023-11-19T15:28:39;16.20;90.10
20066;DHT22;10193;48.884;9.182;2023-11-19T15:31:06;16.10;90.00
20066;DHT22;10193;48.884;9.182;2023-11-19T15:33:32;16.00;90.00
20066;DHT22;10193;48.884;9.182;2023-11-19T15:35:59;16.00;89.90